モスクワ/シェレメーチエヴォ の空港の天気 - METARとTAF

シェレメーチエヴォ国際空港(モスクワ) ( UUEE / SVO ) - ロシア モスクワ
飛行場実況気象(Metar)
観測時間08/17 06:00 MSK (08/17 03:00 UTC)
風向・風速東 3m/s
視程10km以上
天気現象
なし
気温16℃
湿度88%
気圧1027hPa
METARUUEE 170300Z 08003MPS CAVOK 16/14 Q1027 R06R/CLRD62 NOSIG
過去の天気等 Google飛行場航空写真 Wunderground天気予報

過去48時間のMETAR

飛行場予報(TAF)
発表時間: 8/17 04:59 MSK (8/17 01:59 UTC)
予報対象時間: 17日6時 MSK ~ 18日6時 MSK
風向・風速東北東 3m/s
視程10km以上
なし
17日7時 MSK ~ 17日9時 MSK に徐々に
風向・風速東南東 3m/s 瞬間風速 8m/s
TAF UUEE 170159Z 1703/1803 06003MPS CAVOK TX25/1712Z TN13/1802Z
BECMG 1704/1706 12003G08MPS